Aviation Digital Data Service (ADDS)

Output produced by METARs form (1250 UTC 22 March 2019)
found at http://www.aviationweather.gov/metar/data/
 
METAR text: RJBB 221230Z 35023KT 9999 FEW030 SCT040 BKN/// 08/M01 Q1016 NOSIG
Conditions at: RJBB (KANSAI INTL , JP) observed 1230 UTC 22 March 2019
Temperature: 8.0°C (46°F)
Dewpoint: -1.0°C (30°F) [RH = 53%]
Pressure (altimeter): 30.00 inches Hg (1016.0 mb)
Winds: from the N (350 degrees) at 26 MPH (23 knots; 11.8 m/s)
Visibility: 6 or more miles (10+ km)
Ceiling: at least 12,000 feet AGL
Clouds: few clouds at 3000 feet AGL
scattered clouds at 4000 feet AGL
Weather: no significant weather observed at this time

METAR text: RJBB 221200Z 36023KT 9999 FEW030 SCT040 BKN/// 08/M01 Q1016 NOSIG
Conditions at: RJBB (KANSAI INTL , JP) observed 1200 UTC 22 March 2019
Temperature: 8.0°C (46°F)
Dewpoint: -1.0°C (30°F) [RH = 53%]
Pressure (altimeter): 30.00 inches Hg (1016.0 mb)
Winds: from the N (360 degrees) at 26 MPH (23 knots; 11.8 m/s)
Visibility: 6 or more miles (10+ km)
Ceiling: at least 12,000 feet AGL
Clouds: few clouds at 3000 feet AGL
scattered clouds at 4000 feet AGL
Weather: no significant weather observed at this time

METAR text: RJBB 221130Z 36021KT 9999 FEW030 SCT040 BKN/// 09/M01 Q1015 NOSIG
Conditions at: RJBB (KANSAI INTL , JP) observed 1130 UTC 22 March 2019
Temperature: 9.0°C (48°F)
Dewpoint: -1.0°C (30°F) [RH = 49%]
Pressure (altimeter): 29.97 inches Hg (1015.0 mb)
Winds: from the N (360 degrees) at 24 MPH (21 knots; 10.8 m/s)
Visibility: 6 or more miles (10+ km)
Ceiling: at least 12,000 feet AGL
Clouds: few clouds at 3000 feet AGL
scattered clouds at 4000 feet AGL
Weather: no significant weather observed at this time

METAR text: RJBB 221100Z 36020KT 9999 FEW030 SCT040 BKN/// 09/01 Q1015 NOSIG
Conditions at: RJBB (KANSAI INTL , JP) observed 1100 UTC 22 March 2019
Temperature: 9.0°C (48°F)
Dewpoint: 1.0°C (34°F) [RH = 57%]
Pressure (altimeter): 29.97 inches Hg (1015.0 mb)
Winds: from the N (360 degrees) at 23 MPH (20 knots; 10.3 m/s)
Visibility: 6 or more miles (10+ km)
Ceiling: at least 12,000 feet AGL
Clouds: few clouds at 3000 feet AGL
scattered clouds at 4000 feet AGL
Weather: no significant weather observed at this time

METAR text: RJBB 221030Z 36018KT 9999 FEW030 SCT050 BKN/// 09/01 Q1014 NOSIG
Conditions at: RJBB (KANSAI INTL , JP) observed 1030 UTC 22 March 2019
Temperature: 9.0°C (48°F)
Dewpoint: 1.0°C (34°F) [RH = 57%]
Pressure (altimeter): 29.94 inches Hg (1014.0 mb)
Winds: from the N (360 degrees) at 21 MPH (18 knots; 9.3 m/s)
Visibility: 6 or more miles (10+ km)
Ceiling: at least 12,000 feet AGL
Clouds: few clouds at 3000 feet AGL
scattered clouds at 5000 feet AGL
Weather: no significant weather observed at this time

METAR text: RJBB 221000Z 36020KT 9999 FEW030 BKN050 BKN/// 09/00 Q1014 NOSIG
Conditions at: RJBB (KANSAI INTL , JP) observed 1000 UTC 22 March 2019
Temperature: 9.0°C (48°F)
Dewpoint: 0.0°C (32°F) [RH = 53%]
Pressure (altimeter): 29.94 inches Hg (1014.0 mb)
Winds: from the N (360 degrees) at 23 MPH (20 knots; 10.3 m/s)
Visibility: 6 or more miles (10+ km)
Ceiling: 5000 feet AGL
Clouds: few clouds at 3000 feet AGL
broken clouds at 5000 feet AGL
Weather: no significant weather observed at this time

METAR text: RJBB 220930Z 36021KT 9999 FEW030 BKN050 BKN/// 10/01 Q1014 NOSIG
Conditions at: RJBB (KANSAI INTL , JP) observed 0930 UTC 22 March 2019
Temperature: 10.0°C (50°F)
Dewpoint: 1.0°C (34°F) [RH = 53%]
Pressure (altimeter): 29.94 inches Hg (1014.0 mb)
Winds: from the N (360 degrees) at 24 MPH (21 knots; 10.8 m/s)
Visibility: 6 or more miles (10+ km)
Ceiling: 5000 feet AGL
Clouds: few clouds at 3000 feet AGL
broken clouds at 5000 feet AGL
Weather: no significant weather observed at this time

METAR text: RJBB 220900Z 36018KT 9999 FEW030 BKN050 BKN/// 10/01 Q1013 NOSIG
Conditions at: RJBB (KANSAI INTL , JP) observed 0900 UTC 22 March 2019
Temperature: 10.0°C (50°F)
Dewpoint: 1.0°C (34°F) [RH = 53%]
Pressure (altimeter): 29.91 inches Hg (1013.0 mb)
Winds: from the N (360 degrees) at 21 MPH (18 knots; 9.3 m/s)
Visibility: 6 or more miles (10+ km)
Ceiling: 5000 feet AGL
Clouds: few clouds at 3000 feet AGL
broken clouds at 5000 feet AGL
Weather: no significant weather observed at this time

METAR text: RJBB 220830Z 01019KT 9999 FEW030 BKN050 BKN/// 10/02 Q1013 NOSIG
Conditions at: RJBB (KANSAI INTL , JP) observed 0830 UTC 22 March 2019
Temperature: 10.0°C (50°F)
Dewpoint: 2.0°C (36°F) [RH = 57%]
Pressure (altimeter): 29.91 inches Hg (1013.0 mb)
Winds: from the N (10 degrees) at 22 MPH (19 knots; 9.8 m/s)
Visibility: 6 or more miles (10+ km)
Ceiling: 5000 feet AGL
Clouds: few clouds at 3000 feet AGL
broken clouds at 5000 feet AGL
Weather: no significant weather observed at this time

METAR text: RJBB 220800Z 01019KT 9999 FEW030 SCT045 BKN/// 10/02 Q1013 NOSIG
Conditions at: RJBB (KANSAI INTL , JP) observed 0800 UTC 22 March 2019
Temperature: 10.0°C (50°F)
Dewpoint: 2.0°C (36°F) [RH = 57%]
Pressure (altimeter): 29.91 inches Hg (1013.0 mb)
Winds: from the N (10 degrees) at 22 MPH (19 knots; 9.8 m/s)
Visibility: 6 or more miles (10+ km)
Ceiling: at least 12,000 feet AGL
Clouds: few clouds at 3000 feet AGL
scattered clouds at 4500 feet AGL
Weather: no significant weather observed at this time

METAR text: RJBB 220730Z 36021KT 9999 FEW030 SCT100 BKN/// 11/03 Q1012 NOSIG
Conditions at: RJBB (KANSAI INTL , JP) observed 0730 UTC 22 March 2019
Temperature: 11.0°C (52°F)
Dewpoint: 3.0°C (37°F) [RH = 58%]
Pressure (altimeter): 29.88 inches Hg (1012.0 mb)
Winds: from the N (360 degrees) at 24 MPH (21 knots; 10.8 m/s)
Visibility: 6 or more miles (10+ km)
Ceiling: at least 12,000 feet AGL
Clouds: few clouds at 3000 feet AGL
scattered clouds at 10000 feet AGL
Weather: no significant weather observed at this time

METAR text: RJBB 220700Z 36020KT 9000 FEW030 BKN100 11/03 Q1012 NOSIG
Conditions at: RJBB (KANSAI INTL , JP) observed 0700 UTC 22 March 2019
Temperature: 11.0°C (52°F)
Dewpoint: 3.0°C (37°F) [RH = 58%]
Pressure (altimeter): 29.88 inches Hg (1012.0 mb)
Winds: from the N (360 degrees) at 23 MPH (20 knots; 10.3 m/s)
Visibility: 6 miles ( 9 km)
Ceiling: 10000 feet AGL
Clouds: few clouds at 3000 feet AGL
broken clouds at 10000 feet AGL
Weather: no significant weather observed at this time

METAR text: RJBB 220630Z 36016KT 9000 FEW030 SCT050 BKN120 12/03 Q1012 NOSIG
Conditions at: RJBB (KANSAI INTL , JP) observed 0630 UTC 22 March 2019
Temperature: 12.0°C (54°F)
Dewpoint: 3.0°C (37°F) [RH = 54%]
Pressure (altimeter): 29.88 inches Hg (1012.0 mb)
Winds: from the N (360 degrees) at 18 MPH (16 knots; 8.2 m/s)
Visibility: 6 miles ( 9 km)
Ceiling: 12000 feet AGL
Clouds: few clouds at 3000 feet AGL
scattered clouds at 5000 feet AGL
broken clouds at 12000 feet AGL
Weather: no significant weather observed at this time

METAR text: RJBB 220600Z 36015KT 9999 FEW030 SCT050 BKN100 12/03 Q1012 NOSIG
Conditions at: RJBB (KANSAI INTL , JP) observed 0600 UTC 22 March 2019
Temperature: 12.0°C (54°F)
Dewpoint: 3.0°C (37°F) [RH = 54%]
Pressure (altimeter): 29.88 inches Hg (1012.0 mb)
Winds: from the N (360 degrees) at 17 MPH (15 knots; 7.7 m/s)
Visibility: 6 or more miles (10+ km)
Ceiling: 10000 feet AGL
Clouds: few clouds at 3000 feet AGL
scattered clouds at 5000 feet AGL
broken clouds at 10000 feet AGL
Weather: no significant weather observed at this time

METAR text: RJBB 220530Z 35019KT 9999 FEW030 BKN050 BKN100 11/04 Q1011 NOSIG
Conditions at: RJBB (KANSAI INTL , JP) observed 0530 UTC 22 March 2019
Temperature: 11.0°C (52°F)
Dewpoint: 4.0°C (39°F) [RH = 62%]
Pressure (altimeter): 29.85 inches Hg (1011.0 mb)
Winds: from the N (350 degrees) at 22 MPH (19 knots; 9.8 m/s)
Visibility: 6 or more miles (10+ km)
Ceiling: 5000 feet AGL
Clouds: few clouds at 3000 feet AGL
broken clouds at 5000 feet AGL
broken clouds at 10000 feet AGL
Weather: no significant weather observed at this time

METAR text: RJBB 220500Z 35019KT 9999 FEW030 BKN050 BKN080 11/04 Q1011 NOSIG
Conditions at: RJBB (KANSAI INTL , JP) observed 0500 UTC 22 March 2019
Temperature: 11.0°C (52°F)
Dewpoint: 4.0°C (39°F) [RH = 62%]
Pressure (altimeter): 29.85 inches Hg (1011.0 mb)
Winds: from the N (350 degrees) at 22 MPH (19 knots; 9.8 m/s)
Visibility: 6 or more miles (10+ km)
Ceiling: 5000 feet AGL
Clouds: few clouds at 3000 feet AGL
broken clouds at 5000 feet AGL
broken clouds at 8000 feet AGL
Weather: no significant weather observed at this time

METAR text: RJBB 220430Z 34021KT 9999 FEW030 SCT045 BKN080 12/04 Q1011 NOSIG
Conditions at: RJBB (KANSAI INTL , JP) observed 0430 UTC 22 March 2019
Temperature: 12.0°C (54°F)
Dewpoint: 4.0°C (39°F) [RH = 58%]
Pressure (altimeter): 29.85 inches Hg (1011.0 mb)
Winds: from the NNW (340 degrees) at 24 MPH (21 knots; 10.8 m/s)
Visibility: 6 or more miles (10+ km)
Ceiling: 8000 feet AGL
Clouds: few clouds at 3000 feet AGL
scattered clouds at 4500 feet AGL
broken clouds at 8000 feet AGL
Weather: no significant weather observed at this time

METAR text: RJBB 220400Z 35018KT 9999 FEW020 SCT045 BKN070 12/05 Q1011 NOSIG
Conditions at: RJBB (KANSAI INTL , JP) observed 0400 UTC 22 March 2019
Temperature: 12.0°C (54°F)
Dewpoint: 5.0°C (41°F) [RH = 62%]
Pressure (altimeter): 29.85 inches Hg (1011.0 mb)
Winds: from the N (350 degrees) at 21 MPH (18 knots; 9.3 m/s)
Visibility: 6 or more miles (10+ km)
Ceiling: 7000 feet AGL
Clouds: few clouds at 2000 feet AGL
scattered clouds at 4500 feet AGL
broken clouds at 7000 feet AGL
Weather: no significant weather observed at this time

METAR text: RJBB 220330Z 36018KT 9999 FEW020 SCT040 BKN070 13/06 Q1010 NOSIG
Conditions at: RJBB (KANSAI INTL , JP) observed 0330 UTC 22 March 2019
Temperature: 13.0°C (55°F)
Dewpoint: 6.0°C (43°F) [RH = 62%]
Pressure (altimeter): 29.82 inches Hg (1010.0 mb)
Winds: from the N (360 degrees) at 21 MPH (18 knots; 9.3 m/s)
Visibility: 6 or more miles (10+ km)
Ceiling: 7000 feet AGL
Clouds: few clouds at 2000 feet AGL
scattered clouds at 4000 feet AGL
broken clouds at 7000 feet AGL
Weather: no significant weather observed at this time

METAR text: RJBB 220300Z 35020KT 9999 FEW020 SCT035 BKN070 12/06 Q1010 NOSIG
Conditions at: RJBB (KANSAI INTL , JP) observed 0300 UTC 22 March 2019
Temperature: 12.0°C (54°F)
Dewpoint: 6.0°C (43°F) [RH = 67%]
Pressure (altimeter): 29.82 inches Hg (1010.0 mb)
Winds: from the N (350 degrees) at 23 MPH (20 knots; 10.3 m/s)
Visibility: 6 or more miles (10+ km)
Ceiling: 7000 feet AGL
Clouds: few clouds at 2000 feet AGL
scattered clouds at 3500 feet AGL
broken clouds at 7000 feet AGL
Weather: no significant weather observed at this time

METAR text: RJBB 220230Z 35017KT 9999 FEW020 SCT035 BKN070 14/07 Q1010 NOSIG
Conditions at: RJBB (KANSAI INTL , JP) observed 0230 UTC 22 March 2019
Temperature: 14.0°C (57°F)
Dewpoint: 7.0°C (45°F) [RH = 63%]
Pressure (altimeter): 29.82 inches Hg (1010.0 mb)
Winds: from the N (350 degrees) at 20 MPH (17 knots; 8.7 m/s)
Visibility: 6 or more miles (10+ km)
Ceiling: 7000 feet AGL
Clouds: few clouds at 2000 feet AGL
scattered clouds at 3500 feet AGL
broken clouds at 7000 feet AGL
Weather: no significant weather observed at this time

METAR text: RJBB 220200Z 33013KT 9999 FEW020 SCT035 BKN070 14/07 Q1010 NOSIG
Conditions at: RJBB (KANSAI INTL , JP) observed 0200 UTC 22 March 2019
Temperature: 14.0°C (57°F)
Dewpoint: 7.0°C (45°F) [RH = 63%]
Pressure (altimeter): 29.82 inches Hg (1010.0 mb)
Winds: from the NNW (330 degrees) at 15 MPH (13 knots; 6.7 m/s)
Visibility: 6 or more miles (10+ km)
Ceiling: 7000 feet AGL
Clouds: few clouds at 2000 feet AGL
scattered clouds at 3500 feet AGL
broken clouds at 7000 feet AGL
Weather: no significant weather observed at this time

METAR text: RJBB 220130Z 32011KT 9999 FEW020 BKN070 14/07 Q1010 BECMG 34014KT
Conditions at: RJBB (KANSAI INTL , JP) observed 0130 UTC 22 March 2019
Temperature: 14.0°C (57°F)
Dewpoint: 7.0°C (45°F) [RH = 63%]
Pressure (altimeter): 29.82 inches Hg (1010.0 mb)
Winds: from the NW (320 degrees) at 13 MPH (11 knots; 5.7 m/s)
Visibility: 6 or more miles (10+ km)
Ceiling: 7000 feet AGL
Clouds: few clouds at 2000 feet AGL
broken clouds at 7000 feet AGL
Weather: no significant weather observed at this time

METAR text: RJBB 220100Z 33013KT 9999 FEW020 SCT030 BKN070 14/06 Q1010 NOSIG
Conditions at: RJBB (KANSAI INTL , JP) observed 0100 UTC 22 March 2019
Temperature: 14.0°C (57°F)
Dewpoint: 6.0°C (43°F) [RH = 58%]
Pressure (altimeter): 29.82 inches Hg (1010.0 mb)
Winds: from the NNW (330 degrees) at 15 MPH (13 knots; 6.7 m/s)
Visibility: 6 or more miles (10+ km)
Ceiling: 7000 feet AGL
Clouds: few clouds at 2000 feet AGL
scattered clouds at 3000 feet AGL
broken clouds at 7000 feet AGL
Weather: no significant weather observed at this time

METAR text: RJBB 220030Z 33015KT 9999 FEW020 SCT030 BKN050 14/08 Q1010 NOSIG
Conditions at: RJBB (KANSAI INTL , JP) observed 0030 UTC 22 March 2019
Temperature: 14.0°C (57°F)
Dewpoint: 8.0°C (46°F) [RH = 67%]
Pressure (altimeter): 29.82 inches Hg (1010.0 mb)
Winds: from the NNW (330 degrees) at 17 MPH (15 knots; 7.7 m/s)
Visibility: 6 or more miles (10+ km)
Ceiling: 5000 feet AGL
Clouds: few clouds at 2000 feet AGL
scattered clouds at 3000 feet AGL
broken clouds at 5000 feet AGL
Weather: no significant weather observed at this time

METAR text: RJBB 220000Z 34014KT 9999 FEW020 SCT030 BKN050 13/08 Q1010 NOSIG
Conditions at: RJBB (KANSAI INTL , JP) observed 0000 UTC 22 March 2019
Temperature: 13.0°C (55°F)
Dewpoint: 8.0°C (46°F) [RH = 72%]
Pressure (altimeter): 29.82 inches Hg (1010.0 mb)
Winds: from the NNW (340 degrees) at 16 MPH (14 knots; 7.2 m/s)
Visibility: 6 or more miles (10+ km)
Ceiling: 5000 feet AGL
Clouds: few clouds at 2000 feet AGL
scattered clouds at 3000 feet AGL
broken clouds at 5000 feet AGL
Weather: no significant weather observed at this time

METAR text: RJBB 212330Z 34017KT 9999 FEW020 SCT045 BKN060 14/08 Q1009 NOSIG
Conditions at: RJBB (KANSAI INTL , JP) observed 2330 UTC 21 March 2019
Temperature: 14.0°C (57°F)
Dewpoint: 8.0°C (46°F) [RH = 67%]
Pressure (altimeter): 29.79 inches Hg (1009.0 mb)
Winds: from the NNW (340 degrees) at 20 MPH (17 knots; 8.7 m/s)
Visibility: 6 or more miles (10+ km)
Ceiling: 6000 feet AGL
Clouds: few clouds at 2000 feet AGL
scattered clouds at 4500 feet AGL
broken clouds at 6000 feet AGL
Weather: no significant weather observed at this time

METAR text: RJBB 212300Z 34016KT 9999 FEW020 SCT045 BKN060 14/09 Q1009 NOSIG
Conditions at: RJBB (KANSAI INTL , JP) observed 2300 UTC 21 March 2019
Temperature: 14.0°C (57°F)
Dewpoint: 9.0°C (48°F) [RH = 72%]
Pressure (altimeter): 29.79 inches Hg (1009.0 mb)
Winds: from the NNW (340 degrees) at 18 MPH (16 knots; 8.2 m/s)
Visibility: 6 or more miles (10+ km)
Ceiling: 6000 feet AGL
Clouds: few clouds at 2000 feet AGL
scattered clouds at 4500 feet AGL
broken clouds at 6000 feet AGL
Weather: no significant weather observed at this time

METAR text: RJBB 212230Z 33016KT 9999 FEW015 SCT040 BKN060 14/09 Q1009 NOSIG
Conditions at: RJBB (KANSAI INTL , JP) observed 2230 UTC 21 March 2019
Temperature: 14.0°C (57°F)
Dewpoint: 9.0°C (48°F) [RH = 72%]
Pressure (altimeter): 29.79 inches Hg (1009.0 mb)
Winds: from the NNW (330 degrees) at 18 MPH (16 knots; 8.2 m/s)
Visibility: 6 or more miles (10+ km)
Ceiling: 6000 feet AGL
Clouds: few clouds at 1500 feet AGL
scattered clouds at 4000 feet AGL
broken clouds at 6000 feet AGL
Weather: no significant weather observed at this time

METAR text: RJBB 212200Z 32011KT 9999 FEW015 SCT040 BKN060 14/10 Q1008 BECMG TL2230 33012KT
Conditions at: RJBB (KANSAI INTL , JP) observed 2200 UTC 21 March 2019
Temperature: 14.0°C (57°F)
Dewpoint: 10.0°C (50°F) [RH = 77%]
Pressure (altimeter): 29.76 inches Hg (1008.0 mb)
Winds: from the NW (320 degrees) at 13 MPH (11 knots; 5.7 m/s)
Visibility: 6 or more miles (10+ km)
Ceiling: 6000 feet AGL
Clouds: few clouds at 1500 feet AGL
scattered clouds at 4000 feet AGL
broken clouds at 6000 feet AGL
Weather: no significant weather observed at this time

METAR text: RJBB 212130Z 31012KT 9999 FEW015 SCT025 BKN040 15/11 Q1007 BECMG TL2200 33012KT
Conditions at: RJBB (KANSAI INTL , JP) observed 2130 UTC 21 March 2019
Temperature: 15.0°C (59°F)
Dewpoint: 11.0°C (52°F) [RH = 77%]
Pressure (altimeter): 29.73 inches Hg (1007.0 mb)
Winds: from the NW (310 degrees) at 14 MPH (12 knots; 6.2 m/s)
Visibility: 6 or more miles (10+ km)
Ceiling: 4000 feet AGL
Clouds: few clouds at 1500 feet AGL
scattered clouds at 2500 feet AGL
broken clouds at 4000 feet AGL
Weather: no significant weather observed at this time

METAR text: RJBB 212100Z 30014KT 9999 -SHRA FEW010 SCT015 BKN025 15/13 Q1007 BECMG TL2200 33012KT
Conditions at: RJBB (KANSAI INTL , JP) observed 2100 UTC 21 March 2019
Temperature: 15.0°C (59°F)
Dewpoint: 13.0°C (55°F) [RH = 88%]
Pressure (altimeter): 29.73 inches Hg (1007.0 mb)
Winds: from the WNW (300 degrees) at 16 MPH (14 knots; 7.2 m/s)
Visibility: 6 or more miles (10+ km)
Ceiling: 2500 feet AGL
Clouds: few clouds at 1000 feet AGL
scattered clouds at 1500 feet AGL
broken clouds at 2500 feet AGL
Weather: -SHRA  (light rain showers)

METAR text: RJBB 212030Z AUTO 30013KT 6000 FEW018 SCT027 BKN031 15/13 Q1007 BECMG 33010KT
Conditions at: RJBB (KANSAI INTL , JP) observed 2030 UTC 21 March 2019
Temperature: 15.0°C (59°F)
Dewpoint: 13.0°C (55°F) [RH = 88%]
Pressure (altimeter): 29.73 inches Hg (1007.0 mb)
Winds: from the WNW (300 degrees) at 15 MPH (13 knots; 6.7 m/s)
Visibility: 4 miles ( 6 km)
Ceiling: 3100 feet AGL
Clouds: few clouds at 1800 feet AGL
scattered clouds at 2700 feet AGL
broken clouds at 3100 feet AGL
Weather: no significant weather observed at this time

METAR text: RJBB 212020Z AUTO 31013KT 6000 FEW017 SCT036 BKN045 15/13 Q1006 RMK A2973
Conditions at: RJBB (KANSAI INTL , JP) observed 2020 UTC 21 March 2019
Temperature: 15.0°C (59°F)
Dewpoint: 13.0°C (55°F) [RH = 88%]
Pressure (altimeter): 29.70 inches Hg (1006.0 mb)
Winds: from the NW (310 degrees) at 15 MPH (13 knots; 6.7 m/s)
Visibility: 4 miles ( 6 km)
Ceiling: 4500 feet AGL
Clouds: few clouds at 1700 feet AGL
scattered clouds at 3600 feet AGL
broken clouds at 4500 feet AGL
Weather: no significant weather observed at this time

METAR text: RJBB 212015Z AUTO 31014KT 4900 BR FEW017 SCT042 OVC050 15/13 Q1006 RMK A2972
Conditions at: RJBB (KANSAI INTL , JP) observed 2015 UTC 21 March 2019
Temperature: 15.0°C (59°F)
Dewpoint: 13.0°C (55°F) [RH = 88%]
Pressure (altimeter): 29.70 inches Hg (1006.0 mb)
Winds: from the NW (310 degrees) at 16 MPH (14 knots; 7.2 m/s)
Visibility: 3 miles ( 5 km)
Ceiling: 5000 feet AGL
Clouds: few clouds at 1700 feet AGL
scattered clouds at 4200 feet AGL
overcast cloud deck at 5000 feet AGL
Weather: BR  (mist)

METAR text: RJBB 212007Z AUTO 31014KT 5000 BR FEW017 SCT021 BKN045 15/14 Q1006 RMK A2971
Conditions at: RJBB (KANSAI INTL , JP) observed 2007 UTC 21 March 2019
Temperature: 15.0°C (59°F)
Dewpoint: 14.0°C (57°F) [RH = 94%]
Pressure (altimeter): 29.70 inches Hg (1006.0 mb)
Winds: from the NW (310 degrees) at 16 MPH (14 knots; 7.2 m/s)
Visibility: 3 miles ( 5 km)
Ceiling: 4500 feet AGL
Clouds: few clouds at 1700 feet AGL
scattered clouds at 2100 feet AGL
broken clouds at 4500 feet AGL
Weather: BR  (mist)

METAR text: RJBB 212000Z AUTO 30016KT 4900 BR BKN017 BKN049 OVC130 14/13 Q1006 BECMG 33010KT 6000 NSW
Conditions at: RJBB (KANSAI INTL , JP) observed 2000 UTC 21 March 2019
Temperature: 14.0°C (57°F)
Dewpoint: 13.0°C (55°F) [RH = 94%]
Pressure (altimeter): 29.70 inches Hg (1006.0 mb)
Winds: from the WNW (300 degrees) at 18 MPH (16 knots; 8.2 m/s)
Visibility: 3 miles ( 5 km)
Ceiling: 1700 feet AGL
Clouds: broken clouds at 1700 feet AGL
broken clouds at 4900 feet AGL
overcast cloud deck at 13000 feet AGL
Weather: BR  (mist)

METAR text: RJBB 211930Z AUTO 30015KT 4900 BR FEW011 SCT042 OVC130 //////TCU 15/14 Q1005 BECMG TL2000 6000 NSW
Conditions at: RJBB (KANSAI INTL , JP) observed 1930 UTC 21 March 2019
Temperature: 15.0°C (59°F)
Dewpoint: 14.0°C (57°F) [RH = 94%]
Pressure (altimeter): 29.68 inches Hg (1005.0 mb)
Winds: from the WNW (300 degrees) at 17 MPH (15 knots; 7.7 m/s)
Visibility: 3 miles ( 5 km)
Ceiling: 13000 feet AGL
Clouds: few clouds at 1100 feet AGL
scattered clouds at 4200 feet AGL
overcast cloud deck at 13000 feet AGL
Weather: BR  (mist)

METAR text: RJBB 211923Z AUTO 30014KT 4300 BR FEW011 BKN037 BKN044 15/14 Q1006 RMK A2971 P/RR
Conditions at: RJBB (KANSAI INTL , JP) observed 1923 UTC 21 March 2019
Temperature: 15.0°C (59°F)
Dewpoint: 14.0°C (57°F) [RH = 94%]
Pressure (altimeter): 29.70 inches Hg (1006.0 mb)
Winds: from the WNW (300 degrees) at 16 MPH (14 knots; 7.2 m/s)
Visibility: 2.67 miles (4.30 km)
Ceiling: 3700 feet AGL
Clouds: few clouds at 1100 feet AGL
broken clouds at 3700 feet AGL
broken clouds at 4400 feet AGL
Weather: BR  (mist)

METAR text: RJBB 211900Z AUTO 30012KT 4200 BR BKN012 OVC130 //////TCU 15/13 Q1004 TEMPO TL2000 3000 BR FEW003 BKN008 BKN015
Conditions at: RJBB (KANSAI INTL , JP) observed 1900 UTC 21 March 2019
Temperature: 15.0°C (59°F)
Dewpoint: 13.0°C (55°F) [RH = 88%]
Pressure (altimeter): 29.65 inches Hg (1004.0 mb)
Winds: from the WNW (300 degrees) at 14 MPH (12 knots; 6.2 m/s)
Visibility: 2.61 miles (4.20 km)
Ceiling: 1200 feet AGL
Clouds: broken clouds at 1200 feet AGL
overcast cloud deck at 13000 feet AGL
Weather: BR  (mist)

METAR text: RJBB 211848Z AUTO 29016KT 5000 BR BKN013 OVC130 15/14 Q1004 RMK A2966
Conditions at: RJBB (KANSAI INTL , JP) observed 1848 UTC 21 March 2019
Temperature: 15.0°C (59°F)
Dewpoint: 14.0°C (57°F) [RH = 94%]
Pressure (altimeter): 29.65 inches Hg (1004.0 mb)
Winds: from the WNW (290 degrees) at 18 MPH (16 knots; 8.2 m/s)
Visibility: 3 miles ( 5 km)
Ceiling: 1300 feet AGL
Clouds: broken clouds at 1300 feet AGL
overcast cloud deck at 13000 feet AGL
Weather: BR  (mist)

METAR text: RJBB 211841Z AUTO 28017KT 4700 BR FEW013 OVC130 15/14 Q1004 RMK A2967
Conditions at: RJBB (KANSAI INTL , JP) observed 1841 UTC 21 March 2019
Temperature: 15.0°C (59°F)
Dewpoint: 14.0°C (57°F) [RH = 94%]
Pressure (altimeter): 29.65 inches Hg (1004.0 mb)
Winds: from the W (280 degrees) at 20 MPH (17 knots; 8.7 m/s)
Visibility: 2.92 miles (4.70 km)
Ceiling: 13000 feet AGL
Clouds: few clouds at 1300 feet AGL
overcast cloud deck at 13000 feet AGL
Weather: BR  (mist)

METAR text: RJBB 211830Z AUTO 28015KT 5000 BR FEW013 SCT130 OVC140 15/14 Q1004 TEMPO TL2000 3000 BR FEW003 BKN008 BKN015
Conditions at: RJBB (KANSAI INTL , JP) observed 1830 UTC 21 March 2019
Temperature: 15.0°C (59°F)
Dewpoint: 14.0°C (57°F) [RH = 94%]
Pressure (altimeter): 29.65 inches Hg (1004.0 mb)
Winds: from the W (280 degrees) at 17 MPH (15 knots; 7.7 m/s)
Visibility: 3 miles ( 5 km)
Ceiling: 14000 feet AGL
Clouds: few clouds at 1300 feet AGL
scattered clouds at 13000 feet AGL
overcast cloud deck at 14000 feet AGL
Weather: BR  (mist)

METAR text: RJBB 211800Z AUTO 26015KT 6000 FEW018 SCT041 BKN140 16/14 Q1004 TEMPO 3000 BR FEW003 BKN008 BKN015
Conditions at: RJBB (KANSAI INTL , JP) observed 1800 UTC 21 March 2019
Temperature: 16.0°C (61°F)
Dewpoint: 14.0°C (57°F) [RH = 88%]
Pressure (altimeter): 29.65 inches Hg (1004.0 mb)
Winds: from the W (260 degrees) at 17 MPH (15 knots; 7.7 m/s)
Visibility: 4 miles ( 6 km)
Ceiling: 14000 feet AGL
Clouds: few clouds at 1800 feet AGL
scattered clouds at 4100 feet AGL
broken clouds at 14000 feet AGL
Weather: no significant weather observed at this time

METAR text: RJBB 211730Z AUTO 26017KT 7000 SCT040 SCT045 BKN140 16/15 Q1005 TEMPO 3000 BR FEW003 BKN008 BKN015
Conditions at: RJBB (KANSAI INTL , JP) observed 1730 UTC 21 March 2019
Temperature: 16.0°C (61°F)
Dewpoint: 15.0°C (59°F) [RH = 94%]
Pressure (altimeter): 29.68 inches Hg (1005.0 mb)
Winds: from the W (260 degrees) at 20 MPH (17 knots; 8.7 m/s)
Visibility: 4 miles ( 7 km)
Ceiling: 14000 feet AGL
Clouds: scattered clouds at 4000 feet AGL
scattered clouds at 4500 feet AGL
broken clouds at 14000 feet AGL
Weather: no significant weather observed at this time

METAR text: RJBB 211700Z AUTO 26012KT 7000 NSC 15/15 Q1005 TEMPO 3000 BR FEW003 BKN008 BKN015
Conditions at: RJBB (KANSAI INTL , JP) observed 1700 UTC 21 March 2019
Temperature: 15.0°C (59°F)
Dewpoint: 15.0°C (59°F) [RH = 100%]
Pressure (altimeter): 29.68 inches Hg (1005.0 mb)
Winds: from the W (260 degrees) at 14 MPH (12 knots; 6.2 m/s)
Visibility: 4 miles ( 7 km)
Ceiling: at least 12,000 feet AGL
Clouds: sky clear below 12,000 feet AGL
Weather: no significant weather observed at this time

METAR text: RJBB 211642Z AUTO 23007KT 6000 R24L/1000VP2000U R24R/1400VP2000U NSC 15/15 Q1005 RMK A2970
Conditions at: RJBB (KANSAI INTL , JP) observed 1642 UTC 21 March 2019
Temperature: 15.0°C (59°F)
Dewpoint: 15.0°C (59°F) [RH = 100%]
Pressure (altimeter): 29.68 inches Hg (1005.0 mb)
Winds: from the SW (230 degrees) at 8 MPH (7 knots; 3.6 m/s)
Visibility: 4 miles ( 6 km)
Ceiling: at least 12,000 feet AGL
Clouds: sky clear below 12,000 feet AGL
Weather: no significant weather observed at this time

METAR text: RJBB 211637Z AUTO 23006KT 4600 R06R/0550V1400D R24R/1100VP2000U BR NSC 13/13 Q1005 RMK A2970
Conditions at: RJBB (KANSAI INTL , JP) observed 1637 UTC 21 March 2019
Temperature: 13.0°C (55°F)
Dewpoint: 13.0°C (55°F) [RH = 100%]
Pressure (altimeter): 29.68 inches Hg (1005.0 mb)
Winds: from the SW (230 degrees) at 7 MPH (6 knots; 3.1 m/s)
Visibility: 2.86 miles (4.60 km)
Ceiling: at least 12,000 feet AGL
Clouds: sky clear below 12,000 feet AGL
Weather: BR  (mist)

METAR text: RJBB 211636Z AUTO 23006KT 4600 R06R/0550V1400D R24R/1100VP2000U BR NSC 13/13 Q1005 RMK A2970
Conditions at: RJBB (KANSAI INTL , JP) observed 1636 UTC 21 March 2019
Temperature: 13.0°C (55°F)
Dewpoint: 13.0°C (55°F) [RH = 100%]
Pressure (altimeter): 29.68 inches Hg (1005.0 mb)
Winds: from the SW (230 degrees) at 7 MPH (6 knots; 3.1 m/s)
Visibility: 2.86 miles (4.60 km)
Ceiling: at least 12,000 feet AGL
Clouds: sky clear below 12,000 feet AGL
Weather: BR  (mist)

METAR text: RJBB 211634Z AUTO 24007KT 5000 R06R/0550V1600D R24R/1100V1600U BR NSC 13/13 Q1005 RMK A2970
Conditions at: RJBB (KANSAI INTL , JP) observed 1634 UTC 21 March 2019
Temperature: 13.0°C (55°F)
Dewpoint: 13.0°C (55°F) [RH = 100%]
Pressure (altimeter): 29.68 inches Hg (1005.0 mb)
Winds: from the WSW (240 degrees) at 8 MPH (7 knots; 3.6 m/s)
Visibility: 3 miles ( 5 km)
Ceiling: at least 12,000 feet AGL
Clouds: sky clear below 12,000 feet AGL
Weather: BR  (mist)

METAR text: RJBB 211633Z AUTO 24007KT 5000 R06R/0550V1600D R24R/1200U BR NCD 13/13 Q1005 RMK A2970
Conditions at: RJBB (KANSAI INTL , JP) observed 1633 UTC 21 March 2019
Temperature: 13.0°C (55°F)
Dewpoint: 13.0°C (55°F) [RH = 100%]
Pressure (altimeter): 29.68 inches Hg (1005.0 mb)
Winds: from the WSW (240 degrees) at 8 MPH (7 knots; 3.6 m/s)
Visibility: 3 miles ( 5 km)
Ceiling: at least 12,000 feet AGL
Clouds: sky clear below 12,000 feet AGL
Weather: BR  (mist)

METAR text: RJBB 211630Z AUTO 25007KT 7000 R24L/0900VP2000D R24R/0700V1300U NCD 13/13 Q1005 TEMPO 2000 BR FEW003 BKN005 BKN008
Conditions at: RJBB (KANSAI INTL , JP) observed 1630 UTC 21 March 2019
Temperature: 13.0°C (55°F)
Dewpoint: 13.0°C (55°F) [RH = 100%]
Pressure (altimeter): 29.68 inches Hg (1005.0 mb)
Winds: from the WSW (250 degrees) at 8 MPH (7 knots; 3.6 m/s)
Visibility: 4 miles ( 7 km)
Ceiling: at least 12,000 feet AGL
Clouds: sky clear below 12,000 feet AGL
Weather: no significant weather observed at this time

METAR text: RJBB 211628Z AUTO 25007KT 6000 R06R/1100V1600U R24R/0600V1200U NCD 13/13 Q1005 RMK A2970
Conditions at: RJBB (KANSAI INTL , JP) observed 1628 UTC 21 March 2019
Temperature: 13.0°C (55°F)
Dewpoint: 13.0°C (55°F) [RH = 100%]
Pressure (altimeter): 29.68 inches Hg (1005.0 mb)
Winds: from the WSW (250 degrees) at 8 MPH (7 knots; 3.6 m/s)
Visibility: 4 miles ( 6 km)
Ceiling: at least 12,000 feet AGL
Clouds: sky clear below 12,000 feet AGL
Weather: no significant weather observed at this time

METAR text: RJBB 211627Z AUTO 25006KT 5000 R06R/1100V1600N R24R/0600V1200U BR BKN050 13/13 Q1005 RMK A2970
Conditions at: RJBB (KANSAI INTL , JP) observed 1627 UTC 21 March 2019
Temperature: 13.0°C (55°F)
Dewpoint: 13.0°C (55°F) [RH = 100%]
Pressure (altimeter): 29.68 inches Hg (1005.0 mb)
Winds: from the WSW (250 degrees) at 7 MPH (6 knots; 3.1 m/s)
Visibility: 3 miles ( 5 km)
Ceiling: 5000 feet AGL
Clouds: broken clouds at 5000 feet AGL
Weather: BR  (mist)

METAR text: RJBB 211624Z AUTO 25006KT 4300 R06R/1100V1800D R24R/0500V1000U BR BKN050 13/13 Q1005 RMK A2970
Conditions at: RJBB (KANSAI INTL , JP) observed 1624 UTC 21 March 2019
Temperature: 13.0°C (55°F)
Dewpoint: 13.0°C (55°F) [RH = 100%]
Pressure (altimeter): 29.68 inches Hg (1005.0 mb)
Winds: from the WSW (250 degrees) at 7 MPH (6 knots; 3.1 m/s)
Visibility: 2.67 miles (4.30 km)
Ceiling: 5000 feet AGL
Clouds: broken clouds at 5000 feet AGL
Weather: BR  (mist)

METAR text: RJBB 211618Z AUTO 25007KT 2500 R06R/1200VP2000D R24R/0550N BR FEW000 OVC050 14/14 Q1005 RMK A2969
Conditions at: RJBB (KANSAI INTL , JP) observed 1618 UTC 21 March 2019
Temperature: 14.0°C (57°F)
Dewpoint: 14.0°C (57°F) [RH = 100%]
Pressure (altimeter): 29.68 inches Hg (1005.0 mb)
Winds: from the WSW (250 degrees) at 8 MPH (7 knots; 3.6 m/s)
Visibility: 1.55 miles (2.49 km)
Ceiling: 5000 feet AGL
Clouds: few clouds at 0 feet AGL
overcast cloud deck at 5000 feet AGL
Weather: BR  (mist)

METAR text: RJBB 211606Z AUTO 24008KT 0200 R06R/1200VP2000N R24R/0600V0900N FG OVC000 14/14 Q1005 RMK A2970
Conditions at: RJBB (KANSAI INTL , JP) observed 1606 UTC 21 March 2019
Temperature: 14.0°C (57°F)
Dewpoint: 14.0°C (57°F) [RH = 100%]
Pressure (altimeter): 29.68 inches Hg (1005.0 mb)
Winds: from the WSW (240 degrees) at 9 MPH (8 knots; 4.1 m/s)
Visibility: 0.12 miles (0.19 km)
Ceiling: 0 feet AGL
Clouds: overcast cloud deck at 0 feet AGL
Weather: FG  (fog)

METAR text: RJBB 211604Z AUTO 24008KT 0200 R06R/P2000N R24R/0800N FG OVC000 14/14 Q1005 RMK A2970
Conditions at: RJBB (KANSAI INTL , JP) observed 1604 UTC 21 March 2019
Temperature: 14.0°C (57°F)
Dewpoint: 14.0°C (57°F) [RH = 100%]
Pressure (altimeter): 29.68 inches Hg (1005.0 mb)
Winds: from the WSW (240 degrees) at 9 MPH (8 knots; 4.1 m/s)
Visibility: 0.12 miles (0.19 km)
Ceiling: 0 feet AGL
Clouds: overcast cloud deck at 0 feet AGL
Weather: FG  (fog)

METAR text: RJBB 211600Z AUTO 24008KT 0400 R06R/1500VP2000U R24R/0600V0900U FG BKN000 OVC050 14/14 Q1005 BECMG 1200 BR FEW003 BKN005 BKN008
Conditions at: RJBB (KANSAI INTL , JP) observed 1600 UTC 21 March 2019
Temperature: 14.0°C (57°F)
Dewpoint: 14.0°C (57°F) [RH = 100%]
Pressure (altimeter): 29.68 inches Hg (1005.0 mb)
Winds: from the WSW (240 degrees) at 9 MPH (8 knots; 4.1 m/s)
Visibility: 0.25 miles (0.40 km)
Ceiling: 0 feet AGL
Clouds: broken clouds at 0 feet AGL
overcast cloud deck at 5000 feet AGL
Weather: FG  (fog)

METAR text: RJBB 211549Z AUTO 25009KT 0500 R06R/0800V1200N R24R/0400V0550N FG FEW000 SCT047 OVC050 14/14 Q1005 RMK A2969
Conditions at: RJBB (KANSAI INTL , JP) observed 1549 UTC 21 March 2019
Temperature: 14.0°C (57°F)
Dewpoint: 14.0°C (57°F) [RH = 100%]
Pressure (altimeter): 29.68 inches Hg (1005.0 mb)
Winds: from the WSW (250 degrees) at 10 MPH (9 knots; 4.6 m/s)
Visibility: 0.31 miles (0.50 km)
Ceiling: 5000 feet AGL
Clouds: few clouds at 0 feet AGL
scattered clouds at 4700 feet AGL
overcast cloud deck at 5000 feet AGL
Weather: FG  (fog)

METAR text: RJBB 211546Z AUTO 25008KT 0700 R06R/0700V1000U R24R/0450N FG FEW000 BKN047 OVC050 14/14 Q1005 RMK A2969
Conditions at: RJBB (KANSAI INTL , JP) observed 1546 UTC 21 March 2019
Temperature: 14.0°C (57°F)
Dewpoint: 14.0°C (57°F) [RH = 100%]
Pressure (altimeter): 29.68 inches Hg (1005.0 mb)
Winds: from the WSW (250 degrees) at 9 MPH (8 knots; 4.1 m/s)
Visibility: 0.43 miles (0.69 km)
Ceiling: 4700 feet AGL
Clouds: few clouds at 0 feet AGL
broken clouds at 4700 feet AGL
overcast cloud deck at 5000 feet AGL
Weather: FG  (fog)

METAR text: RJBB 211544Z AUTO 25007KT 0700 R06R/0700V1000U R24R/0400N FG BKN000 OVC050 14/14 Q1005 RMK A2969
Conditions at: RJBB (KANSAI INTL , JP) observed 1544 UTC 21 March 2019
Temperature: 14.0°C (57°F)
Dewpoint: 14.0°C (57°F) [RH = 100%]
Pressure (altimeter): 29.68 inches Hg (1005.0 mb)
Winds: from the WSW (250 degrees) at 8 MPH (7 knots; 3.6 m/s)
Visibility: 0.43 miles (0.69 km)
Ceiling: 0 feet AGL
Clouds: broken clouds at 0 feet AGL
overcast cloud deck at 5000 feet AGL
Weather: FG  (fog)

METAR text: RJBB 211540Z AUTO 26005KT 0300 R06R/0800N R24R/0450N FG FEW000 BKN047 OVC050 14/14 Q1005 RMK A2969
Conditions at: RJBB (KANSAI INTL , JP) observed 1540 UTC 21 March 2019
Temperature: 14.0°C (57°F)
Dewpoint: 14.0°C (57°F) [RH = 100%]
Pressure (altimeter): 29.68 inches Hg (1005.0 mb)
Winds: from the W (260 degrees) at 6 MPH (5 knots; 2.6 m/s)
Visibility: 0.19 miles (0.31 km)
Ceiling: 4700 feet AGL
Clouds: few clouds at 0 feet AGL
broken clouds at 4700 feet AGL
overcast cloud deck at 5000 feet AGL
Weather: FG  (fog)

METAR text: RJBB 211535Z AUTO 26004KT 0100 R06R/0800U R24R/0450N FG SCT000 OVC050 15/15 Q1005 RMK A2969
Conditions at: RJBB (KANSAI INTL , JP) observed 1535 UTC 21 March 2019
Temperature: 15.0°C (59°F)
Dewpoint: 15.0°C (59°F) [RH = 100%]
Pressure (altimeter): 29.68 inches Hg (1005.0 mb)
Winds: from the W (260 degrees) at 5 MPH (4 knots; 2.1 m/s)
Visibility: 0.06 miles (0.10 km)
Ceiling: 5000 feet AGL
Clouds: scattered clouds at 0 feet AGL
overcast cloud deck at 5000 feet AGL
Weather: FG  (fog)

METAR text: RJBB 211533Z AUTO 26005KT 0100 R06R/0650V0900N R24R/0400N FG SCT000 OVC050 15/15 Q1005 RMK A2969
Conditions at: RJBB (KANSAI INTL , JP) observed 1533 UTC 21 March 2019
Temperature: 15.0°C (59°F)
Dewpoint: 15.0°C (59°F) [RH = 100%]
Pressure (altimeter): 29.68 inches Hg (1005.0 mb)
Winds: from the W (260 degrees) at 6 MPH (5 knots; 2.6 m/s)
Visibility: 0.06 miles (0.10 km)
Ceiling: 5000 feet AGL
Clouds: scattered clouds at 0 feet AGL
overcast cloud deck at 5000 feet AGL
Weather: FG  (fog)

METAR text: RJBB 211530Z AUTO 26005KT 0200 R06R/0700N R24R/0400N FG OVC000 15/15 Q1005 BECMG 0700 FG FEW003 BKN005 BKN008
Conditions at: RJBB (KANSAI INTL , JP) observed 1530 UTC 21 March 2019
Temperature: 15.0°C (59°F)
Dewpoint: 15.0°C (59°F) [RH = 100%]
Pressure (altimeter): 29.68 inches Hg (1005.0 mb)
Winds: from the W (260 degrees) at 6 MPH (5 knots; 2.6 m/s)
Visibility: 0.12 miles (0.19 km)
Ceiling: 0 feet AGL
Clouds: overcast cloud deck at 0 feet AGL
Weather: FG  (fog)

METAR text: RJBB 211526Z AUTO 25005KT 0100 R06R/0650V1000D R06L/0600N -RA FG OVC000 15/15 Q1005 RMK A2969
Conditions at: RJBB (KANSAI INTL , JP) observed 1526 UTC 21 March 2019
Temperature: 15.0°C (59°F)
Dewpoint: 15.0°C (59°F) [RH = 100%]
Pressure (altimeter): 29.68 inches Hg (1005.0 mb)
Winds: from the WSW (250 degrees) at 6 MPH (5 knots; 2.6 m/s)
Visibility: 0.06 miles (0.10 km)
Ceiling: 0 feet AGL
Clouds: overcast cloud deck at 0 feet AGL
Weather: -RA FG  (light rain, fog)

METAR text: RJBB 211525Z AUTO 25005KT 0100 R06R/0650V1000D R06L/0600U -RA FG OVC000 15/15 Q1005 RMK A2969
Conditions at: RJBB (KANSAI INTL , JP) observed 1525 UTC 21 March 2019
Temperature: 15.0°C (59°F)
Dewpoint: 15.0°C (59°F) [RH = 100%]
Pressure (altimeter): 29.68 inches Hg (1005.0 mb)
Winds: from the WSW (250 degrees) at 6 MPH (5 knots; 2.6 m/s)
Visibility: 0.06 miles (0.10 km)
Ceiling: 0 feet AGL
Clouds: overcast cloud deck at 0 feet AGL
Weather: -RA FG  (light rain, fog)

METAR text: RJBB 211523Z AUTO 25005KT 0200 R06R/0700V1100D R06L/0500V0700U FG OVC000 15/15 Q1005 RMK A2968
Conditions at: RJBB (KANSAI INTL , JP) observed 1523 UTC 21 March 2019
Temperature: 15.0°C (59°F)
Dewpoint: 15.0°C (59°F) [RH = 100%]
Pressure (altimeter): 29.68 inches Hg (1005.0 mb)
Winds: from the WSW (250 degrees) at 6 MPH (5 knots; 2.6 m/s)
Visibility: 0.12 miles (0.19 km)
Ceiling: 0 feet AGL
Clouds: overcast cloud deck at 0 feet AGL
Weather: FG  (fog)

METAR text: RJBB 211521Z AUTO 25005KT 0100 R06R/0750V1200D R06L/0550N FG OVC000 15/15 Q1005 RMK A2968
Conditions at: RJBB (KANSAI INTL , JP) observed 1521 UTC 21 March 2019
Temperature: 15.0°C (59°F)
Dewpoint: 15.0°C (59°F) [RH = 100%]
Pressure (altimeter): 29.68 inches Hg (1005.0 mb)
Winds: from the WSW (250 degrees) at 6 MPH (5 knots; 2.6 m/s)
Visibility: 0.06 miles (0.10 km)
Ceiling: 0 feet AGL
Clouds: overcast cloud deck at 0 feet AGL
Weather: FG  (fog)

METAR text: RJBB 211516Z AUTO 25004KT 0100 R06R/1000VP2000D R06L/0500N -RA FG OVC000 14/14 Q1005 RMK A2968
Conditions at: RJBB (KANSAI INTL , JP) observed 1516 UTC 21 March 2019
Temperature: 14.0°C (57°F)
Dewpoint: 14.0°C (57°F) [RH = 100%]
Pressure (altimeter): 29.68 inches Hg (1005.0 mb)
Winds: from the WSW (250 degrees) at 5 MPH (4 knots; 2.1 m/s)
Visibility: 0.06 miles (0.10 km)
Ceiling: 0 feet AGL
Clouds: overcast cloud deck at 0 feet AGL
Weather: -RA FG  (light rain, fog)

METAR text: RJBB 211513Z AUTO 26003KT 230V340 0100 R06R/1000VP2000D R06L/0500V0600N FG OVC000 15/15 Q1005 RMK A2968
Conditions at: RJBB (KANSAI INTL , JP) observed 1513 UTC 21 March 2019
Temperature: 15.0°C (59°F)
Dewpoint: 15.0°C (59°F) [RH = 100%]
Pressure (altimeter): 29.68 inches Hg (1005.0 mb)
Winds: from the W (260 degrees) at 3 MPH (3 knots; 1.5 m/s)
Visibility: 0.06 miles (0.10 km)
Ceiling: 0 feet AGL
Clouds: overcast cloud deck at 0 feet AGL
Weather: FG  (fog)

METAR text: RJBB 211500Z AUTO 31004KT 0100 R06R/P2000N R06L/0600N FG OVC000 14/14 Q1005 BECMG 1200 BR FEW003 BKN005 BKN008
Conditions at: RJBB (KANSAI INTL , JP) observed 1500 UTC 21 March 2019
Temperature: 14.0°C (57°F)
Dewpoint: 14.0°C (57°F) [RH = 100%]
Pressure (altimeter): 29.68 inches Hg (1005.0 mb)
Winds: from the NW (310 degrees) at 5 MPH (4 knots; 2.1 m/s)
Visibility: 0.06 miles (0.10 km)
Ceiling: 0 feet AGL
Clouds: overcast cloud deck at 0 feet AGL
Weather: FG  (fog)

METAR text: RJBB 211445Z AUTO 32003KT 0100 R06R/P2000N R06L/0450V0600N FG BKN000 OVC050 16/16 Q1005 RMK A2968
Conditions at: RJBB (KANSAI INTL , JP) observed 1445 UTC 21 March 2019
Temperature: 16.0°C (61°F)
Dewpoint: 16.0°C (61°F) [RH = 100%]
Pressure (altimeter): 29.68 inches Hg (1005.0 mb)
Winds: from the NW (320 degrees) at 3 MPH (3 knots; 1.5 m/s)
Visibility: 0.06 miles (0.10 km)
Ceiling: 0 feet AGL
Clouds: broken clouds at 0 feet AGL
overcast cloud deck at 5000 feet AGL
Weather: FG  (fog)

METAR text: RJBB 211439Z AUTO 30003KT 0100 R06R/P2000N R06L/0550N FG BKN000 BKN038 OVC050 14/14 Q1005 RMK A2968
Conditions at: RJBB (KANSAI INTL , JP) observed 1439 UTC 21 March 2019
Temperature: 14.0°C (57°F)
Dewpoint: 14.0°C (57°F) [RH = 100%]
Pressure (altimeter): 29.68 inches Hg (1005.0 mb)
Winds: from the WNW (300 degrees) at 3 MPH (3 knots; 1.5 m/s)
Visibility: 0.06 miles (0.10 km)
Ceiling: 0 feet AGL
Clouds: broken clouds at 0 feet AGL
broken clouds at 3800 feet AGL
overcast cloud deck at 5000 feet AGL
Weather: FG  (fog)

METAR text: RJBB 211432Z AUTO 32004KT 280V360 0200 R06R/P2000N R06L/0550N FG BKN000 BKN018 14/14 Q1005 RMK A2968
Conditions at: RJBB (KANSAI INTL , JP) observed 1432 UTC 21 March 2019
Temperature: 14.0°C (57°F)
Dewpoint: 14.0°C (57°F) [RH = 100%]
Pressure (altimeter): 29.68 inches Hg (1005.0 mb)
Winds: from the NW (320 degrees) at 5 MPH (4 knots; 2.1 m/s)
Visibility: 0.12 miles (0.19 km)
Ceiling: 0 feet AGL
Clouds: broken clouds at 0 feet AGL
broken clouds at 1800 feet AGL
Weather: FG  (fog)

METAR text: RJBB 211431Z AUTO 33004KT 290V360 0100 R06R/P2000N R06L/0500N -RA FG BKN000 15/15 Q1005 RMK A2968
Conditions at: RJBB (KANSAI INTL , JP) observed 1431 UTC 21 March 2019
Temperature: 15.0°C (59°F)
Dewpoint: 15.0°C (59°F) [RH = 100%]
Pressure (altimeter): 29.68 inches Hg (1005.0 mb)
Winds: from the NNW (330 degrees) at 5 MPH (4 knots; 2.1 m/s)
Visibility: 0.06 miles (0.10 km)
Ceiling: 0 feet AGL
Clouds: broken clouds at 0 feet AGL
Weather: -RA FG  (light rain, fog)

METAR text: RJBB 211430Z AUTO 33004KT 290V360 0100 R06R/P2000N R06L/0550N -RA FG BKN000 15/15 Q1005 BECMG 1200 BR FEW003 BKN005 BKN008
Conditions at: RJBB (KANSAI INTL , JP) observed 1430 UTC 21 March 2019
Temperature: 15.0°C (59°F)
Dewpoint: 15.0°C (59°F) [RH = 100%]
Pressure (altimeter): 29.68 inches Hg (1005.0 mb)
Winds: from the NNW (330 degrees) at 5 MPH (4 knots; 2.1 m/s)
Visibility: 0.06 miles (0.10 km)
Ceiling: 0 feet AGL
Clouds: broken clouds at 0 feet AGL
Weather: -RA FG  (light rain, fog)

METAR text: RJBB 211427Z AUTO 34004KT 300V360 0100 R06R/P2000N R06L/0550N -RA FG SCT000 BKN018 15/14 Q1004 RMK A2967
Conditions at: RJBB (KANSAI INTL , JP) observed 1427 UTC 21 March 2019
Temperature: 15.0°C (59°F)
Dewpoint: 14.0°C (57°F) [RH = 94%]
Pressure (altimeter): 29.65 inches Hg (1004.0 mb)
Winds: from the NNW (340 degrees) at 5 MPH (4 knots; 2.1 m/s)
Visibility: 0.06 miles (0.10 km)
Ceiling: 1800 feet AGL
Clouds: scattered clouds at 0 feet AGL
broken clouds at 1800 feet AGL
Weather: -RA FG  (light rain, fog)

METAR text: RJBB 211420Z AUTO 34004KT 300V010 0100 R06R/P2000N R06L/0450V0650N -RA FG BKN000 15/15 Q1004 RMK A2967
Conditions at: RJBB (KANSAI INTL , JP) observed 1420 UTC 21 March 2019
Temperature: 15.0°C (59°F)
Dewpoint: 15.0°C (59°F) [RH = 100%]
Pressure (altimeter): 29.65 inches Hg (1004.0 mb)
Winds: from the NNW (340 degrees) at 5 MPH (4 knots; 2.1 m/s)
Visibility: 0.06 miles (0.10 km)
Ceiling: 0 feet AGL
Clouds: broken clouds at 0 feet AGL
Weather: -RA FG  (light rain, fog)

METAR text: RJBB 211414Z AUTO 35003KT 310V020 0100 R06R/P2000N R06L/0500VP2000D FG BKN000 15/14 Q1004 RMK A2967
Conditions at: RJBB (KANSAI INTL , JP) observed 1414 UTC 21 March 2019
Temperature: 15.0°C (59°F)
Dewpoint: 14.0°C (57°F) [RH = 94%]
Pressure (altimeter): 29.65 inches Hg (1004.0 mb)
Winds: from the N (350 degrees) at 3 MPH (3 knots; 1.5 m/s)
Visibility: 0.06 miles (0.10 km)
Ceiling: 0 feet AGL
Clouds: broken clouds at 0 feet AGL
Weather: FG  (fog)

METAR text: RJBB 211413Z AUTO 35003KT 300V020 0100 R06R/P2000N R06L/0550V1900D FG BKN000 15/15 Q1004 RMK A2967
Conditions at: RJBB (KANSAI INTL , JP) observed 1413 UTC 21 March 2019
Temperature: 15.0°C (59°F)
Dewpoint: 15.0°C (59°F) [RH = 100%]
Pressure (altimeter): 29.65 inches Hg (1004.0 mb)
Winds: from the N (350 degrees) at 3 MPH (3 knots; 1.5 m/s)
Visibility: 0.06 miles (0.10 km)
Ceiling: 0 feet AGL
Clouds: broken clouds at 0 feet AGL
Weather: FG  (fog)

METAR text: RJBB 211412Z AUTO 34003KT 300V020 0200 R06R/P2000N R06L/0650V1900D FG BKN000 15/15 Q1004 RMK A2967
Conditions at: RJBB (KANSAI INTL , JP) observed 1412 UTC 21 March 2019
Temperature: 15.0°C (59°F)
Dewpoint: 15.0°C (59°F) [RH = 100%]
Pressure (altimeter): 29.65 inches Hg (1004.0 mb)
Winds: from the NNW (340 degrees) at 3 MPH (3 knots; 1.5 m/s)
Visibility: 0.12 miles (0.19 km)
Ceiling: 0 feet AGL
Clouds: broken clouds at 0 feet AGL
Weather: FG  (fog)

METAR text: RJBB 211410Z AUTO 34003KT 300V020 0200 R06R/P2000N R06L/0700VP2000D FG SCT000 16/15 Q1004 RMK A2967
Conditions at: RJBB (KANSAI INTL , JP) observed 1410 UTC 21 March 2019
Temperature: 16.0°C (61°F)
Dewpoint: 15.0°C (59°F) [RH = 94%]
Pressure (altimeter): 29.65 inches Hg (1004.0 mb)
Winds: from the NNW (340 degrees) at 3 MPH (3 knots; 1.5 m/s)
Visibility: 0.12 miles (0.19 km)
Ceiling: at least 12,000 feet AGL
Clouds: scattered clouds at 0 feet AGL
Weather: FG  (fog)

METAR text: RJBB 211409Z AUTO 34003KT 300V020 0200 R06R/P2000N R06L/0750VP2000D FG BKN000 16/15 Q1004 RMK A2967
Conditions at: RJBB (KANSAI INTL , JP) observed 1409 UTC 21 March 2019
Temperature: 16.0°C (61°F)
Dewpoint: 15.0°C (59°F) [RH = 94%]
Pressure (altimeter): 29.65 inches Hg (1004.0 mb)
Winds: from the NNW (340 degrees) at 3 MPH (3 knots; 1.5 m/s)
Visibility: 0.12 miles (0.19 km)
Ceiling: 0 feet AGL
Clouds: broken clouds at 0 feet AGL
Weather: FG  (fog)

METAR text: RJBB 211408Z AUTO 33003KT 300V020 0200 R06R/P2000N R06L/0750VP2000D FG BKN000 16/15 Q1004 RMK A2967
Conditions at: RJBB (KANSAI INTL , JP) observed 1408 UTC 21 March 2019
Temperature: 16.0°C (61°F)
Dewpoint: 15.0°C (59°F) [RH = 94%]
Pressure (altimeter): 29.65 inches Hg (1004.0 mb)
Winds: from the NNW (330 degrees) at 3 MPH (3 knots; 1.5 m/s)
Visibility: 0.12 miles (0.19 km)
Ceiling: 0 feet AGL
Clouds: broken clouds at 0 feet AGL
Weather: FG  (fog)

METAR text: RJBB 211400Z AUTO 31003KT 260V050 1400 R06R/P2000N R06L/P2000N BR FEW000 17/16 Q1004 TEMPO FEW003 BKN005 BKN008
Conditions at: RJBB (KANSAI INTL , JP) observed 1400 UTC 21 March 2019
Temperature: 17.0°C (63°F)
Dewpoint: 16.0°C (61°F) [RH = 94%]
Pressure (altimeter): 29.65 inches Hg (1004.0 mb)
Winds: from the NW (310 degrees) at 3 MPH (3 knots; 1.5 m/s)
Visibility: 0.87 miles (1.40 km)
Ceiling: at least 12,000 feet AGL
Clouds: few clouds at 0 feet AGL
Weather: BR  (mist)

METAR text: RJBB 211342Z VRB02KT 6000 R24L/P2000N R24R/0400V1000D BR FEW020 BKN/// 16/16 Q1004 RMK 1CU020 A2967 2000W-N
Conditions at: RJBB (KANSAI INTL , JP) observed 1342 UTC 21 March 2019
Temperature: 16.0°C (61°F)
Dewpoint: 16.0°C (61°F) [RH = 100%]
Pressure (altimeter): 29.65 inches Hg (1004.0 mb)
Winds: variable direction winds at 2 MPH (2 knots; 1.0 m/s)
Visibility: 4 miles ( 6 km)
Ceiling: at least 12,000 feet AGL
Clouds: few clouds at 2000 feet AGL
Weather: BR  (mist)

METAR text: RJBB 211340Z VRB02KT 6000 R24L/P2000N R24R/0450V1800D BR FEW020 BKN/// 16/16 Q1004 RMK 1CU020 A2967 2000W-N
Conditions at: RJBB (KANSAI INTL , JP) observed 1340 UTC 21 March 2019
Temperature: 16.0°C (61°F)
Dewpoint: 16.0°C (61°F) [RH = 100%]
Pressure (altimeter): 29.65 inches Hg (1004.0 mb)
Winds: variable direction winds at 2 MPH (2 knots; 1.0 m/s)
Visibility: 4 miles ( 6 km)
Ceiling: at least 12,000 feet AGL
Clouds: few clouds at 2000 feet AGL
Weather: BR  (mist)

METAR text: RJBB 211337Z VRB02KT 7000 R24L/P2000N R24R/0450VP2000D BR FEW020 BKN/// 16/15 Q1004 RMK 1CU020 A2967 3000W-N
Conditions at: RJBB (KANSAI INTL , JP) observed 1337 UTC 21 March 2019
Temperature: 16.0°C (61°F)
Dewpoint: 15.0°C (59°F) [RH = 94%]
Pressure (altimeter): 29.65 inches Hg (1004.0 mb)
Winds: variable direction winds at 2 MPH (2 knots; 1.0 m/s)
Visibility: 4 miles ( 7 km)
Ceiling: at least 12,000 feet AGL
Clouds: few clouds at 2000 feet AGL
Weather: BR  (mist)

METAR text: RJBB 211330Z VRB02KT 8000 R24L/P2000N R24R/2000N BR FEW020 BKN/// 17/17 Q1005 NOSIG
Conditions at: RJBB (KANSAI INTL , JP) observed 1330 UTC 21 March 2019
Temperature: 17.0°C (63°F)
Dewpoint: 17.0°C (63°F) [RH = 100%]
Pressure (altimeter): 29.68 inches Hg (1005.0 mb)
Winds: variable direction winds at 2 MPH (2 knots; 1.0 m/s)
Visibility: 5 miles ( 8 km)
Ceiling: at least 12,000 feet AGL
Clouds: few clouds at 2000 feet AGL
Weather: BR  (mist)

METAR text: RJBB 211300Z 20005KT 190V250 8000 R24L/P2000N R24R/1400VP2000U BR FEW020 BKN/// 16/15 Q1005 NOSIG
Conditions at: RJBB (KANSAI INTL , JP) observed 1300 UTC 21 March 2019
Temperature: 16.0°C (61°F)
Dewpoint: 15.0°C (59°F) [RH = 94%]
Pressure (altimeter): 29.68 inches Hg (1005.0 mb)
Winds: from the SSW (200 degrees) at 6 MPH (5 knots; 2.6 m/s)
Visibility: 5 miles ( 8 km)
Ceiling: at least 12,000 feet AGL
Clouds: few clouds at 2000 feet AGL
Weather: BR  (mist)

METAR text: RJBB 211230Z 23008KT 7000 BR FEW010 BKN/// 16/16 Q1005 NOSIG
Conditions at: RJBB (KANSAI INTL , JP) observed 1230 UTC 21 March 2019
Temperature: 16.0°C (61°F)
Dewpoint: 16.0°C (61°F) [RH = 100%]
Pressure (altimeter): 29.68 inches Hg (1005.0 mb)
Winds: from the SW (230 degrees) at 9 MPH (8 knots; 4.1 m/s)
Visibility: 4 miles ( 7 km)
Ceiling: at least 12,000 feet AGL
Clouds: few clouds at 1000 feet AGL
Weather: BR  (mist)

METAR text: RJBB 211200Z 22009KT 7000 BR FEW010 BKN/// 17/17 Q1005 NOSIG
Conditions at: RJBB (KANSAI INTL , JP) observed 1200 UTC 21 March 2019
Temperature: 17.0°C (63°F)
Dewpoint: 17.0°C (63°F) [RH = 100%]
Pressure (altimeter): 29.68 inches Hg (1005.0 mb)
Winds: from the SW (220 degrees) at 10 MPH (9 knots; 4.6 m/s)
Visibility: 4 miles ( 7 km)
Ceiling: at least 12,000 feet AGL
Clouds: few clouds at 1000 feet AGL
Weather: BR  (mist)

METAR text: RJBB 211130Z 22009KT 8000 FEW005 SCT015 18/17 Q1005 NOSIG
Conditions at: RJBB (KANSAI INTL , JP) observed 1130 UTC 21 March 2019
Temperature: 18.0°C (64°F)
Dewpoint: 17.0°C (63°F) [RH = 94%]
Pressure (altimeter): 29.68 inches Hg (1005.0 mb)
Winds: from the SW (220 degrees) at 10 MPH (9 knots; 4.6 m/s)
Visibility: 5 miles ( 8 km)
Ceiling: at least 12,000 feet AGL
Clouds: few clouds at 500 feet AGL
scattered clouds at 1500 feet AGL
Weather: no significant weather observed at this time

METAR text: RJBB 211100Z 24011KT 9999 FEW005 BKN010 BKN015 19/18 Q1005 TEMPO FEW005 BKN008 BKN015
Conditions at: RJBB (KANSAI INTL , JP) observed 1100 UTC 21 March 2019
Temperature: 19.0°C (66°F)
Dewpoint: 18.0°C (64°F) [RH = 94%]
Pressure (altimeter): 29.68 inches Hg (1005.0 mb)
Winds: from the WSW (240 degrees) at 13 MPH (11 knots; 5.7 m/s)
Visibility: 6 or more miles (10+ km)
Ceiling: 1000 feet AGL
Clouds: few clouds at 500 feet AGL
broken clouds at 1000 feet AGL
broken clouds at 1500 feet AGL
Weather: no significant weather observed at this time

METAR text: RJBB 211030Z 21015KT 9999 FEW005 BKN010 BKN020 18/17 Q1004 TEMPO FEW005 BKN008 BKN015
Conditions at: RJBB (KANSAI INTL , JP) observed 1030 UTC 21 March 2019
Temperature: 18.0°C (64°F)
Dewpoint: 17.0°C (63°F) [RH = 94%]
Pressure (altimeter): 29.65 inches Hg (1004.0 mb)
Winds: from the SSW (210 degrees) at 17 MPH (15 knots; 7.7 m/s)
Visibility: 6 or more miles (10+ km)
Ceiling: 1000 feet AGL
Clouds: few clouds at 500 feet AGL
broken clouds at 1000 feet AGL
broken clouds at 2000 feet AGL
Weather: no significant weather observed at this time

METAR text: RJBB 211000Z 20016KT 9999 FEW005 BKN012 BKN020 17/16 Q1004 NOSIG
Conditions at: RJBB (KANSAI INTL , JP) observed 1000 UTC 21 March 2019
Temperature: 17.0°C (63°F)
Dewpoint: 16.0°C (61°F) [RH = 94%]
Pressure (altimeter): 29.65 inches Hg (1004.0 mb)
Winds: from the SSW (200 degrees) at 18 MPH (16 knots; 8.2 m/s)
Visibility: 6 or more miles (10+ km)
Ceiling: 1200 feet AGL
Clouds: few clouds at 500 feet AGL
broken clouds at 1200 feet AGL
broken clouds at 2000 feet AGL
Weather: no significant weather observed at this time

METAR text: RJBB 210930Z 20017KT 9999 FEW008 BKN012 BKN020 17/17 Q1004 NOSIG
Conditions at: RJBB (KANSAI INTL , JP) observed 0930 UTC 21 March 2019
Temperature: 17.0°C (63°F)
Dewpoint: 17.0°C (63°F) [RH = 100%]
Pressure (altimeter): 29.65 inches Hg (1004.0 mb)
Winds: from the SSW (200 degrees) at 20 MPH (17 knots; 8.7 m/s)
Visibility: 6 or more miles (10+ km)
Ceiling: 1200 feet AGL
Clouds: few clouds at 800 feet AGL
broken clouds at 1200 feet AGL
broken clouds at 2000 feet AGL
Weather: no significant weather observed at this time

METAR text: RJBB 210900Z 20016KT 9999 FEW008 BKN015 17/16 Q1004 BECMG FEW008 BKN012 BKN020
Conditions at: RJBB (KANSAI INTL , JP) observed 0900 UTC 21 March 2019
Temperature: 17.0°C (63°F)
Dewpoint: 16.0°C (61°F) [RH = 94%]
Pressure (altimeter): 29.65 inches Hg (1004.0 mb)
Winds: from the SSW (200 degrees) at 18 MPH (16 knots; 8.2 m/s)
Visibility: 6 or more miles (10+ km)
Ceiling: 1500 feet AGL
Clouds: few clouds at 800 feet AGL
broken clouds at 1500 feet AGL
Weather: no significant weather observed at this time

METAR text: RJBB 210830Z 21017KT 9999 FEW010 SCT015 BKN020 18/16 Q1004 NOSIG
Conditions at: RJBB (KANSAI INTL , JP) observed 0830 UTC 21 March 2019
Temperature: 18.0°C (64°F)
Dewpoint: 16.0°C (61°F) [RH = 88%]
Pressure (altimeter): 29.65 inches Hg (1004.0 mb)
Winds: from the SSW (210 degrees) at 20 MPH (17 knots; 8.7 m/s)
Visibility: 6 or more miles (10+ km)
Ceiling: 2000 feet AGL
Clouds: few clouds at 1000 feet AGL
scattered clouds at 1500 feet AGL
broken clouds at 2000 feet AGL
Weather: no significant weather observed at this time

METAR text: RJBB 210800Z 20019KT 9999 FEW010 SCT015 BKN020 18/16 Q1004 NOSIG
Conditions at: RJBB (KANSAI INTL , JP) observed 0800 UTC 21 March 2019
Temperature: 18.0°C (64°F)
Dewpoint: 16.0°C (61°F) [RH = 88%]
Pressure (altimeter): 29.65 inches Hg (1004.0 mb)
Winds: from the SSW (200 degrees) at 22 MPH (19 knots; 9.8 m/s)
Visibility: 6 or more miles (10+ km)
Ceiling: 2000 feet AGL
Clouds: few clouds at 1000 feet AGL
scattered clouds at 1500 feet AGL
broken clouds at 2000 feet AGL
Weather: no significant weather observed at this time

METAR text: RJBB 210730Z 19022KT 9999 FEW015 BKN025 18/16 Q1003 TEMPO 19022G32KT
Conditions at: RJBB (KANSAI INTL , JP) observed 0730 UTC 21 March 2019
Temperature: 18.0°C (64°F)
Dewpoint: 16.0°C (61°F) [RH = 88%]
Pressure (altimeter): 29.62 inches Hg (1003.0 mb)
Winds: from the S (190 degrees) at 25 MPH (22 knots; 11.3 m/s)
Visibility: 6 or more miles (10+ km)
Ceiling: 2500 feet AGL
Clouds: few clouds at 1500 feet AGL
broken clouds at 2500 feet AGL
Weather: no significant weather observed at this time

METAR text: RJBB 210700Z 19021KT 9999 FEW015 BKN070 18/15 Q1003 TEMPO 19022G32KT
Conditions at: RJBB (KANSAI INTL , JP) observed 0700 UTC 21 March 2019
Temperature: 18.0°C (64°F)
Dewpoint: 15.0°C (59°F) [RH = 83%]
Pressure (altimeter): 29.62 inches Hg (1003.0 mb)
Winds: from the S (190 degrees) at 24 MPH (21 knots; 10.8 m/s)
Visibility: 6 or more miles (10+ km)
Ceiling: 7000 feet AGL
Clouds: few clouds at 1500 feet AGL
broken clouds at 7000 feet AGL
Weather: no significant weather observed at this time

METAR text: RJBB 210641Z 19021G31KT 9999 FEW015 BKN070 19/15 Q1003 RMK 1CU015 5AC070 A2964
Conditions at: RJBB (KANSAI INTL , JP) observed 0641 UTC 21 March 2019
Temperature: 19.0°C (66°F)
Dewpoint: 15.0°C (59°F) [RH = 78%]
Pressure (altimeter): 29.62 inches Hg (1003.0 mb)
Winds: from the S (190 degrees) at 24 MPH (21 knots; 10.8 m/s)
gusting to 36 MPH (31 knots; 15.9 m/s)
Visibility: 6 or more miles (10+ km)
Ceiling: 7000 feet AGL
Clouds: few clouds at 1500 feet AGL
broken clouds at 7000 feet AGL
Weather: no significant weather observed at this time

METAR text: RJBB 210630Z 19021KT 9999 FEW015 SCT045 19/15 Q1003 TEMPO 19022G32KT
Conditions at: RJBB (KANSAI INTL , JP) observed 0630 UTC 21 March 2019
Temperature: 19.0°C (66°F)
Dewpoint: 15.0°C (59°F) [RH = 78%]
Pressure (altimeter): 29.62 inches Hg (1003.0 mb)
Winds: from the S (190 degrees) at 24 MPH (21 knots; 10.8 m/s)
Visibility: 6 or more miles (10+ km)
Ceiling: at least 12,000 feet AGL
Clouds: few clouds at 1500 feet AGL
scattered clouds at 4500 feet AGL
Weather: no significant weather observed at this time

METAR text: RJBB 210601Z 19021G31KT 9999 FEW015 BKN045 20/15 Q1003 RMK 1CU015 5CU045 A2964
Conditions at: RJBB (KANSAI INTL , JP) observed 0601 UTC 21 March 2019
Temperature: 20.0°C (68°F)
Dewpoint: 15.0°C (59°F) [RH = 73%]
Pressure (altimeter): 29.62 inches Hg (1003.0 mb)
Winds: from the S (190 degrees) at 24 MPH (21 knots; 10.8 m/s)
gusting to 36 MPH (31 knots; 15.9 m/s)
Visibility: 6 or more miles (10+ km)
Ceiling: 4500 feet AGL
Clouds: few clouds at 1500 feet AGL
broken clouds at 4500 feet AGL
Weather: no significant weather observed at this time

METAR text: RJBB 210600Z 19022KT 9999 FEW015 BKN045 20/15 Q1003 TEMPO 19023G33KT
Conditions at: RJBB (KANSAI INTL , JP) observed 0600 UTC 21 March 2019
Temperature: 20.0°C (68°F)
Dewpoint: 15.0°C (59°F) [RH = 73%]
Pressure (altimeter): 29.62 inches Hg (1003.0 mb)
Winds: from the S (190 degrees) at 25 MPH (22 knots; 11.3 m/s)
Visibility: 6 or more miles (10+ km)
Ceiling: 4500 feet AGL
Clouds: few clouds at 1500 feet AGL
broken clouds at 4500 feet AGL
Weather: no significant weather observed at this time

METAR text: RJBB 210530Z 20024KT 9999 FEW015 19/14 Q1003 TEMPO 20025G36KT
Conditions at: RJBB (KANSAI INTL , JP) observed 0530 UTC 21 March 2019
Temperature: 19.0°C (66°F)
Dewpoint: 14.0°C (57°F) [RH = 73%]
Pressure (altimeter): 29.62 inches Hg (1003.0 mb)
Winds: from the SSW (200 degrees) at 28 MPH (24 knots; 12.3 m/s)
Visibility: 6 or more miles (10+ km)
Ceiling: at least 12,000 feet AGL
Clouds: few clouds at 1500 feet AGL
Weather: no significant weather observed at this time

METAR text: RJBB 210511Z 20025G37KT 9999 FEW015 SCT070 18/14 Q1003 RMK 1CU015 3AC070 A2964
Conditions at: RJBB (KANSAI INTL , JP) observed 0511 UTC 21 March 2019
Temperature: 18.0°C (64°F)
Dewpoint: 14.0°C (57°F) [RH = 77%]
Pressure (altimeter): 29.62 inches Hg (1003.0 mb)
Winds: from the SSW (200 degrees) at 29 MPH (25 knots; 12.9 m/s)
gusting to 43 MPH (37 knots; 19.0 m/s)
Visibility: 6 or more miles (10+ km)
Ceiling: at least 12,000 feet AGL
Clouds: few clouds at 1500 feet AGL
scattered clouds at 7000 feet AGL
Weather: no significant weather observed at this time

METAR text: RJBB 210500Z 20024KT 9999 FEW015 SCT/// 19/14 Q1003 TEMPO 20025G36KT
Conditions at: RJBB (KANSAI INTL , JP) observed 0500 UTC 21 March 2019
Temperature: 19.0°C (66°F)
Dewpoint: 14.0°C (57°F) [RH = 73%]
Pressure (altimeter): 29.62 inches Hg (1003.0 mb)
Winds: from the SSW (200 degrees) at 28 MPH (24 knots; 12.3 m/s)
Visibility: 6 or more miles (10+ km)
Ceiling: at least 12,000 feet AGL
Clouds: few clouds at 1500 feet AGL
Weather: no significant weather observed at this time

METAR text: RJBB 210430Z 19027G37KT 9999 FEW020 SCT070 19/15 Q1004 NOSIG
Conditions at: RJBB (KANSAI INTL , JP) observed 0430 UTC 21 March 2019
Temperature: 19.0°C (66°F)
Dewpoint: 15.0°C (59°F) [RH = 78%]
Pressure (altimeter): 29.65 inches Hg (1004.0 mb)
Winds: from the S (190 degrees) at 31 MPH (27 knots; 13.9 m/s)
gusting to 43 MPH (37 knots; 19.0 m/s)
Visibility: 6 or more miles (10+ km)
Ceiling: at least 12,000 feet AGL
Clouds: few clouds at 2000 feet AGL
scattered clouds at 7000 feet AGL
Weather: no significant weather observed at this time

METAR text: RJBB 210400Z 19025G36KT 9999 FEW020 BKN070 18/14 Q1004 NOSIG
Conditions at: RJBB (KANSAI INTL , JP) observed 0400 UTC 21 March 2019
Temperature: 18.0°C (64°F)
Dewpoint: 14.0°C (57°F) [RH = 77%]
Pressure (altimeter): 29.65 inches Hg (1004.0 mb)
Winds: from the S (190 degrees) at 29 MPH (25 knots; 12.9 m/s)
gusting to 41 MPH (36 knots; 18.5 m/s)
Visibility: 6 or more miles (10+ km)
Ceiling: 7000 feet AGL
Clouds: few clouds at 2000 feet AGL
broken clouds at 7000 feet AGL
Weather: no significant weather observed at this time

METAR text: RJBB 210330Z 19028KT 9999 FEW020 BKN070 18/14 Q1005 TEMPO 19029G40KT
Conditions at: RJBB (KANSAI INTL , JP) observed 0330 UTC 21 March 2019
Temperature: 18.0°C (64°F)
Dewpoint: 14.0°C (57°F) [RH = 77%]
Pressure (altimeter): 29.68 inches Hg (1005.0 mb)
Winds: from the S (190 degrees) at 32 MPH (28 knots; 14.4 m/s)
Visibility: 6 or more miles (10+ km)
Ceiling: 7000 feet AGL
Clouds: few clouds at 2000 feet AGL
broken clouds at 7000 feet AGL
Weather: no significant weather observed at this time

METAR text: RJBB 210300Z 19024KT 9999 FEW020 BKN070 18/13 Q1006 TEMPO 19026G38KT
Conditions at: RJBB (KANSAI INTL , JP) observed 0300 UTC 21 March 2019
Temperature: 18.0°C (64°F)
Dewpoint: 13.0°C (55°F) [RH = 73%]
Pressure (altimeter): 29.70 inches Hg (1006.0 mb)
Winds: from the S (190 degrees) at 28 MPH (24 knots; 12.3 m/s)
Visibility: 6 or more miles (10+ km)
Ceiling: 7000 feet AGL
Clouds: few clouds at 2000 feet AGL
broken clouds at 7000 feet AGL
Weather: no significant weather observed at this time

METAR text: RJBB 210230Z 19026KT 9999 FEW020 SCT030 BKN070 18/14 Q1007 TEMPO 19027G39KT
Conditions at: RJBB (KANSAI INTL , JP) observed 0230 UTC 21 March 2019
Temperature: 18.0°C (64°F)
Dewpoint: 14.0°C (57°F) [RH = 77%]
Pressure (altimeter): 29.73 inches Hg (1007.0 mb)
Winds: from the S (190 degrees) at 30 MPH (26 knots; 13.4 m/s)
Visibility: 6 or more miles (10+ km)
Ceiling: 7000 feet AGL
Clouds: few clouds at 2000 feet AGL
scattered clouds at 3000 feet AGL
broken clouds at 7000 feet AGL
Weather: no significant weather observed at this time

METAR text: RJBB 210214Z 19026G36KT 9999 FEW020 BKN080 18/13 Q1006 RMK 1CU020 6AC080 A2973
Conditions at: RJBB (KANSAI INTL , JP) observed 0214 UTC 21 March 2019
Temperature: 18.0°C (64°F)
Dewpoint: 13.0°C (55°F) [RH = 73%]
Pressure (altimeter): 29.70 inches Hg (1006.0 mb)
Winds: from the S (190 degrees) at 30 MPH (26 knots; 13.4 m/s)
gusting to 41 MPH (36 knots; 18.5 m/s)
Visibility: 6 or more miles (10+ km)
Ceiling: 8000 feet AGL
Clouds: few clouds at 2000 feet AGL
broken clouds at 8000 feet AGL
Weather: no significant weather observed at this time

METAR text: RJBB 210200Z 19023KT 9999 FEW020 BKN080 17/13 Q1007 TEMPO 19026G38KT
Conditions at: RJBB (KANSAI INTL , JP) observed 0200 UTC 21 March 2019
Temperature: 17.0°C (63°F)
Dewpoint: 13.0°C (55°F) [RH = 77%]
Pressure (altimeter): 29.73 inches Hg (1007.0 mb)
Winds: from the S (190 degrees) at 26 MPH (23 knots; 11.8 m/s)
Visibility: 6 or more miles (10+ km)
Ceiling: 8000 feet AGL
Clouds: few clouds at 2000 feet AGL
broken clouds at 8000 feet AGL
Weather: no significant weather observed at this time

METAR text: RJBB 210140Z 19024G34KT 9999 FEW025 BKN080 17/13 Q1007 RMK 1CU025 5AC080 A2974
Conditions at: RJBB (KANSAI INTL , JP) observed 0140 UTC 21 March 2019
Temperature: 17.0°C (63°F)
Dewpoint: 13.0°C (55°F) [RH = 77%]
Pressure (altimeter): 29.73 inches Hg (1007.0 mb)
Winds: from the S (190 degrees) at 28 MPH (24 knots; 12.3 m/s)
gusting to 39 MPH (34 knots; 17.5 m/s)
Visibility: 6 or more miles (10+ km)
Ceiling: 8000 feet AGL
Clouds: few clouds at 2500 feet AGL
broken clouds at 8000 feet AGL
Weather: no significant weather observed at this time

METAR text: RJBB 210130Z 19024KT 9999 FEW025 BKN080 17/13 Q1007 TEMPO 19026G38KT
Conditions at: RJBB (KANSAI INTL , JP) observed 0130 UTC 21 March 2019
Temperature: 17.0°C (63°F)
Dewpoint: 13.0°C (55°F) [RH = 77%]
Pressure (altimeter): 29.73 inches Hg (1007.0 mb)
Winds: from the S (190 degrees) at 28 MPH (24 knots; 12.3 m/s)
Visibility: 6 or more miles (10+ km)
Ceiling: 8000 feet AGL
Clouds: few clouds at 2500 feet AGL
broken clouds at 8000 feet AGL
Weather: no significant weather observed at this time

METAR text: RJBB 210100Z 19025KT 9999 FEW020 BKN070 17/13 Q1007 TEMPO 19026G38KT
Conditions at: RJBB (KANSAI INTL , JP) observed 0100 UTC 21 March 2019
Temperature: 17.0°C (63°F)
Dewpoint: 13.0°C (55°F) [RH = 77%]
Pressure (altimeter): 29.73 inches Hg (1007.0 mb)
Winds: from the S (190 degrees) at 29 MPH (25 knots; 12.9 m/s)
Visibility: 6 or more miles (10+ km)
Ceiling: 7000 feet AGL
Clouds: few clouds at 2000 feet AGL
broken clouds at 7000 feet AGL
Weather: no significant weather observed at this time

Forecast for: RJBB (KANSAI INTL , JP)
Text: TAF RJBB 221108Z 2212/2318 01016KT 9999 FEW025 SCT045
Forecast period: 1200 UTC 22 March 2019 to 0300 UTC 23 March 2019
Forecast type: FROM: standard forecast or significant change
Winds: from the N (10 degrees) at 18 MPH (16 knots; 8.2 m/s)
Visibility: 6 or more miles 10+ km)
Ceiling: at least 12,000 feet AGL
Clouds: few clouds at 2500 feet AGL
scattered clouds at 4500 feet AGL
Weather: no significant weather forecast for this period
Text: BECMG 2303/2306 30008KT
Forecast period: 0300 to 1500 UTC 23 March 2019
Forecast type: BECOMING: Conditions expected to become as follows by 0600 UTC 23 March 2019
Winds: from the WNW (300 degrees) at 9 MPH (8 knots; 4.1 m/s)
Visibility: 6 or more miles 10+ km)
Ceiling: at least 12,000 feet AGL
Clouds: few clouds at 2500 feet AGL
scattered clouds at 4500 feet AGL
Weather: no significant weather forecast for this period
Text: BECMG 2315/2318 34015KT
Forecast period: 1500 to 1800 UTC 23 March 2019
Forecast type: BECOMING: Conditions expected to become as follows by 1800 UTC 23 March 2019
Winds: from the NNW (340 degrees) at 17 MPH (15 knots; 7.7 m/s)
Visibility: 6 or more miles 10+ km)
Ceiling: at least 12,000 feet AGL
Clouds: few clouds at 2500 feet AGL
scattered clouds at 4500 feet AGL
Weather: no significant weather forecast for this period